sensor_id;sensor_type;location;lat;lon;timestamp;P1;durP1;ratioP1;P2;durP2;ratioP2
77733;SDS011;66902;41.720;44.796;2023-12-20T00:02:09;17.60;;;14.40;;
77733;SDS011;66902;41.720;44.796;2023-12-20T00:04:44;26.70;;;16.90;;
77733;SDS011;66902;41.720;44.796;2023-12-20T00:07:18;28.10;;;16.20;;
77733;SDS011;66902;41.720;44.796;2023-12-20T00:09:52;29.00;;;15.40;;
77733;SDS011;66902;41.720;44.796;2023-12-20T00:12:25;20.00;;;14.30;;
77733;SDS011;66902;41.720;44.796;2023-12-20T00:14:58;22.20;;;14.00;;
77733;SDS011;66902;41.720;44.796;2023-12-20T00:17:32;23.70;;;12.80;;
77733;SDS011;66902;41.720;44.796;2023-12-20T00:20:06;21.70;;;13.70;;
77733;SDS011;66902;41.720;44.796;2023-12-20T00:22:41;14.90;;;11.70;;
77733;SDS011;66902;41.720;44.796;2023-12-20T00:25:15;21.50;;;16.10;;
77733;SDS011;66902;41.720;44.796;2023-12-20T00:27:48;27.10;;;19.50;;
77733;SDS011;66902;41.720;44.796;2023-12-20T00:30:22;24.50;;;17.40;;
77733;SDS011;66902;41.720;44.796;2023-12-20T00:32:56;19.50;;;15.90;;
77733;SDS011;66902;41.720;44.796;2023-12-20T00:35:30;19.30;;;14.50;;
77733;SDS011;66902;41.720;44.796;2023-12-20T00:38:03;27.50;;;15.40;;
77733;SDS011;66902;41.720;44.796;2023-12-20T00:40:38;28.30;;;17.70;;
77733;SDS011;66902;41.720;44.796;2023-12-20T00:43:11;30.90;;;16.20;;
77733;SDS011;66902;41.720;44.796;2023-12-20T00:45:45;28.30;;;15.80;;
77733;SDS011;66902;41.720;44.796;2023-12-20T00:48:19;27.00;;;15.10;;
77733;SDS011;66902;41.720;44.796;2023-12-20T00:50:52;20.70;;;13.80;;
77733;SDS011;66902;41.720;44.796;2023-12-20T00:53:26;21.10;;;15.20;;
77733;SDS011;66902;41.720;44.796;2023-12-20T00:55:59;33.20;;;16.20;;
77733;SDS011;66902;41.720;44.796;2023-12-20T00:58:33;30.80;;;21.50;;
77733;SDS011;66902;41.720;44.796;2023-12-20T01:01:06;31.10;;;19.50;;
77733;SDS011;66902;41.720;44.796;2023-12-20T01:03:40;20.80;;;17.90;;
77733;SDS011;66902;41.720;44.796;2023-12-20T01:06:14;22.60;;;16.70;;
77733;SDS011;66902;41.720;44.796;2023-12-20T01:08:47;19.70;;;14.00;;
77733;SDS011;66902;41.720;44.796;2023-12-20T01:11:20;19.10;;;14.70;;
77733;SDS011;66902;41.720;44.796;2023-12-20T01:13:54;22.20;;;15.30;;
77733;SDS011;66902;41.720;44.796;2023-12-20T01:16:28;30.80;;;16.30;;
77733;SDS011;66902;41.720;44.796;2023-12-20T01:19:01;18.00;;;12.40;;
77733;SDS011;66902;41.720;44.796;2023-12-20T01:21:35;15.40;;;11.00;;
77733;SDS011;66902;41.720;44.796;2023-12-20T01:24:08;21.30;;;10.40;;
77733;SDS011;66902;41.720;44.796;2023-12-20T01:26:41;19.20;;;10.90;;
77733;SDS011;66902;41.720;44.796;2023-12-20T01:29:15;22.50;;;12.40;;
77733;SDS011;66902;41.720;44.796;2023-12-20T01:31:48;21.70;;;11.10;;
77733;SDS011;66902;41.720;44.796;2023-12-20T01:34:22;17.20;;;10.60;;
77733;SDS011;66902;41.720;44.796;2023-12-20T01:36:55;18.60;;;10.50;;
77733;SDS011;66902;41.720;44.796;2023-12-20T01:39:30;12.70;;;10.10;;
77733;SDS011;66902;41.720;44.796;2023-12-20T01:42:03;13.90;;;9.70;;
77733;SDS011;66902;41.720;44.796;2023-12-20T01:44:37;21.70;;;11.70;;
77733;SDS011;66902;41.720;44.796;2023-12-20T01:47:11;13.00;;;10.00;;
77733;SDS011;66902;41.720;44.796;2023-12-20T01:49:45;16.50;;;10.70;;
77733;SDS011;66902;41.720;44.796;2023-12-20T01:52:18;19.50;;;9.90;;
77733;SDS011;66902;41.720;44.796;2023-12-20T01:54:52;18.70;;;10.20;;
77733;SDS011;66902;41.720;44.796;2023-12-20T01:57:32;17.30;;;10.40;;
77733;SDS011;66902;41.720;44.796;2023-12-20T02:00:07;10.80;;;9.50;;
77733;SDS011;66902;41.720;44.796;2023-12-20T02:02:41;16.70;;;10.40;;
77733;SDS011;66902;41.720;44.796;2023-12-20T02:05:15;10.90;;;9.10;;
77733;SDS011;66902;41.720;44.796;2023-12-20T02:07:49;23.20;;;10.40;;
77733;SDS011;66902;41.720;44.796;2023-12-20T02:10:22;25.60;;;11.40;;
77733;SDS011;66902;41.720;44.796;2023-12-20T02:12:56;21.40;;;9.60;;
77733;SDS011;66902;41.720;44.796;2023-12-20T02:15:30;24.20;;;9.20;;
77733;SDS011;66902;41.720;44.796;2023-12-20T02:18:03;15.90;;;9.30;;
77733;SDS011;66902;41.720;44.796;2023-12-20T02:20:37;12.60;;;10.00;;
77733;SDS011;66902;41.720;44.796;2023-12-20T02:23:10;23.30;;;13.70;;
77733;SDS011;66902;41.720;44.796;2023-12-20T02:25:44;15.30;;;11.30;;
77733;SDS011;66902;41.720;44.796;2023-12-20T02:28:17;18.20;;;11.80;;
77733;SDS011;66902;41.720;44.796;2023-12-20T02:30:53;21.10;;;11.80;;
77733;SDS011;66902;41.720;44.796;2023-12-20T02:33:27;19.10;;;11.30;;
77733;SDS011;66902;41.720;44.796;2023-12-20T02:36:00;32.10;;;12.20;;
77733;SDS011;66902;41.720;44.796;2023-12-20T02:38:34;18.40;;;10.90;;
77733;SDS011;66902;41.720;44.796;2023-12-20T02:41:07;18.30;;;11.80;;
77733;SDS011;66902;41.720;44.796;2023-12-20T02:43:41;23.60;;;11.20;;
77733;SDS011;66902;41.720;44.796;2023-12-20T02:46:14;20.70;;;12.60;;
77733;SDS011;66902;41.720;44.796;2023-12-20T02:48:49;17.30;;;11.10;;
77733;SDS011;66902;41.720;44.796;2023-12-20T02:51:24;19.10;;;11.70;;
77733;SDS011;66902;41.720;44.796;2023-12-20T02:53:57;25.00;;;12.20;;
77733;SDS011;66902;41.720;44.796;2023-12-20T02:56:30;22.20;;;11.10;;
77733;SDS011;66902;41.720;44.796;2023-12-20T02:59:04;21.60;;;10.90;;
77733;SDS011;66902;41.720;44.796;2023-12-20T03:01:41;19.20;;;11.10;;
77733;SDS011;66902;41.720;44.796;2023-12-20T03:04:15;15.60;;;10.80;;
77733;SDS011;66902;41.720;44.796;2023-12-20T03:06:49;15.70;;;10.20;;
77733;SDS011;66902;41.720;44.796;2023-12-20T03:09:22;12.50;;;9.40;;
77733;SDS011;66902;41.720;44.796;2023-12-20T03:11:56;20.70;;;10.20;;
77733;SDS011;66902;41.720;44.796;2023-12-20T03:14:30;14.90;;;10.10;;
77733;SDS011;66902;41.720;44.796;2023-12-20T03:17:04;16.20;;;8.90;;
77733;SDS011;66902;41.720;44.796;2023-12-20T03:19:37;22.60;;;10.70;;
77733;SDS011;66902;41.720;44.796;2023-12-20T03:22:11;17.30;;;10.00;;
77733;SDS011;66902;41.720;44.796;2023-12-20T03:24:44;13.80;;;9.40;;
77733;SDS011;66902;41.720;44.796;2023-12-20T03:27:17;15.20;;;10.10;;
77733;SDS011;66902;41.720;44.796;2023-12-20T03:29:51;14.70;;;10.00;;
77733;SDS011;66902;41.720;44.796;2023-12-20T03:32:25;16.60;;;9.50;;
77733;SDS011;66902;41.720;44.796;2023-12-20T03:34:58;15.70;;;11.00;;
77733;SDS011;66902;41.720;44.796;2023-12-20T03:37:32;17.70;;;10.70;;
77733;SDS011;66902;41.720;44.796;2023-12-20T03:40:06;14.10;;;9.90;;
77733;SDS011;66902;41.720;44.796;2023-12-20T03:42:40;19.40;;;11.00;;
77733;SDS011;66902;41.720;44.796;2023-12-20T03:45:14;17.40;;;12.10;;
77733;SDS011;66902;41.720;44.796;2023-12-20T03:47:47;19.80;;;12.10;;
77733;SDS011;66902;41.720;44.796;2023-12-20T03:50:25;15.90;;;11.60;;
77733;SDS011;66902;41.720;44.796;2023-12-20T03:52:58;23.60;;;11.50;;
77733;SDS011;66902;41.720;44.796;2023-12-20T03:55:32;17.80;;;11.80;;
77733;SDS011;66902;41.720;44.796;2023-12-20T03:58:05;32.60;;;12.90;;
77733;SDS011;66902;41.720;44.796;2023-12-20T04:00:39;30.70;;;12.70;;
77733;SDS011;66902;41.720;44.796;2023-12-20T04:03:13;32.70;;;12.70;;
77733;SDS011;66902;41.720;44.796;2023-12-20T04:05:46;29.10;;;12.60;;
77733;SDS011;66902;41.720;44.796;2023-12-20T04:08:20;20.90;;;13.00;;
77733;SDS011;66902;41.720;44.796;2023-12-20T04:10:54;25.70;;;13.20;;
77733;SDS011;66902;41.720;44.796;2023-12-20T04:13:27;33.00;;;15.30;;
77733;SDS011;66902;41.720;44.796;2023-12-20T04:16:01;27.30;;;15.80;;
77733;SDS011;66902;41.720;44.796;2023-12-20T04:18:35;24.80;;;14.40;;
77733;SDS011;66902;41.720;44.796;2023-12-20T04:21:08;28.20;;;13.60;;
77733;SDS011;66902;41.720;44.796;2023-12-20T04:23:42;28.20;;;14.90;;
77733;SDS011;66902;41.720;44.796;2023-12-20T04:26:15;17.60;;;11.90;;
77733;SDS011;66902;41.720;44.796;2023-12-20T04:28:48;26.10;;;12.60;;
77733;SDS011;66902;41.720;44.796;2023-12-20T04:31:24;21.10;;;12.60;;
77733;SDS011;66902;41.720;44.796;2023-12-20T04:33:58;24.50;;;13.10;;
77733;SDS011;66902;41.720;44.796;2023-12-20T04:36:31;22.00;;;11.80;;
77733;SDS011;66902;41.720;44.796;2023-12-20T04:39:05;25.70;;;12.70;;
77733;SDS011;66902;41.720;44.796;2023-12-20T04:41:38;20.30;;;11.50;;
77733;SDS011;66902;41.720;44.796;2023-12-20T04:44:12;19.90;;;13.10;;
77733;SDS011;66902;41.720;44.796;2023-12-20T04:46:45;22.40;;;11.60;;
77733;SDS011;66902;41.720;44.796;2023-12-20T04:49:19;15.80;;;11.60;;
77733;SDS011;66902;41.720;44.796;2023-12-20T04:51:52;18.10;;;13.50;;
77733;SDS011;66902;41.720;44.796;2023-12-20T04:54:26;14.20;;;12.00;;
77733;SDS011;66902;41.720;44.796;2023-12-20T04:56:59;23.70;;;13.00;;
77733;SDS011;66902;41.720;44.796;2023-12-20T04:59:33;17.60;;;11.30;;
77733;SDS011;66902;41.720;44.796;2023-12-20T05:02:07;18.60;;;11.90;;
77733;SDS011;66902;41.720;44.796;2023-12-20T05:04:40;15.10;;;9.70;;
77733;SDS011;66902;41.720;44.796;2023-12-20T05:07:13;18.00;;;11.80;;
77733;SDS011;66902;41.720;44.796;2023-12-20T05:09:47;18.70;;;12.20;;
77733;SDS011;66902;41.720;44.796;2023-12-20T05:12:20;21.70;;;12.00;;
77733;SDS011;66902;41.720;44.796;2023-12-20T05:14:53;22.90;;;12.40;;
77733;SDS011;66902;41.720;44.796;2023-12-20T05:17:27;18.80;;;13.60;;
77733;SDS011;66902;41.720;44.796;2023-12-20T05:20:00;19.60;;;12.30;;
77733;SDS011;66902;41.720;44.796;2023-12-20T05:22:36;19.00;;;12.90;;
77733;SDS011;66902;41.720;44.796;2023-12-20T05:25:09;20.60;;;14.90;;
77733;SDS011;66902;41.720;44.796;2023-12-20T05:27:43;26.90;;;14.20;;
77733;SDS011;66902;41.720;44.796;2023-12-20T05:30:17;22.80;;;14.70;;
77733;SDS011;66902;41.720;44.796;2023-12-20T05:32:50;18.70;;;14.30;;
77733;SDS011;66902;41.720;44.796;2023-12-20T05:35:24;19.00;;;13.50;;
77733;SDS011;66902;41.720;44.796;2023-12-20T05:37:57;19.70;;;14.50;;
77733;SDS011;66902;41.720;44.796;2023-12-20T05:40:31;15.50;;;13.10;;
77733;SDS011;66902;41.720;44.796;2023-12-20T05:43:04;19.40;;;13.70;;
77733;SDS011;66902;41.720;44.796;2023-12-20T05:45:38;19.00;;;13.80;;
77733;SDS011;66902;41.720;44.796;2023-12-20T05:48:12;27.10;;;16.40;;
77733;SDS011;66902;41.720;44.796;2023-12-20T05:50:45;17.70;;;13.70;;
77733;SDS011;66902;41.720;44.796;2023-12-20T05:53:19;29.80;;;15.50;;
77733;SDS011;66902;41.720;44.796;2023-12-20T05:55:52;18.30;;;13.70;;
77733;SDS011;66902;41.720;44.796;2023-12-20T05:58:25;15.80;;;13.50;;
77733;SDS011;66902;41.720;44.796;2023-12-20T06:00:59;22.20;;;14.90;;
77733;SDS011;66902;41.720;44.796;2023-12-20T06:03:33;26.10;;;15.90;;
77733;SDS011;66902;41.720;44.796;2023-12-20T06:06:07;23.00;;;16.00;;
77733;SDS011;66902;41.720;44.796;2023-12-20T06:08:46;18.70;;;13.40;;
77733;SDS011;66902;41.720;44.796;2023-12-20T06:11:19;17.10;;;12.30;;
77733;SDS011;66902;41.720;44.796;2023-12-20T06:13:52;17.00;;;11.60;;
77733;SDS011;66902;41.720;44.796;2023-12-20T06:16:26;17.80;;;12.00;;
77733;SDS011;66902;41.720;44.796;2023-12-20T06:18:59;11.90;;;10.70;;
77733;SDS011;66902;41.720;44.796;2023-12-20T06:21:33;17.30;;;11.30;;
77733;SDS011;66902;41.720;44.796;2023-12-20T06:24:09;22.00;;;13.80;;
77733;SDS011;66902;41.720;44.796;2023-12-20T06:26:43;15.10;;;12.80;;
77733;SDS011;66902;41.720;44.796;2023-12-20T06:29:16;25.00;;;15.10;;
77733;SDS011;66902;41.720;44.796;2023-12-20T06:31:50;24.20;;;14.90;;
77733;SDS011;66902;41.720;44.796;2023-12-20T06:34:23;20.40;;;14.50;;
77733;SDS011;66902;41.720;44.796;2023-12-20T06:36:57;18.60;;;13.00;;
77733;SDS011;66902;41.720;44.796;2023-12-20T06:39:30;21.40;;;14.60;;
77733;SDS011;66902;41.720;44.796;2023-12-20T06:42:05;17.50;;;12.60;;
77733;SDS011;66902;41.720;44.796;2023-12-20T06:44:38;16.20;;;13.10;;
77733;SDS011;66902;41.720;44.796;2023-12-20T06:47:12;22.30;;;14.80;;
77733;SDS011;66902;41.720;44.796;2023-12-20T06:49:45;23.00;;;12.60;;
77733;SDS011;66902;41.720;44.796;2023-12-20T06:52:18;14.50;;;9.80;;
77733;SDS011;66902;41.720;44.796;2023-12-20T06:54:52;15.60;;;9.30;;
77733;SDS011;66902;41.720;44.796;2023-12-20T06:57:25;17.40;;;10.90;;
77733;SDS011;66902;41.720;44.796;2023-12-20T06:59:59;14.60;;;10.30;;
77733;SDS011;66902;41.720;44.796;2023-12-20T07:02:33;17.30;;;10.10;;
77733;SDS011;66902;41.720;44.796;2023-12-20T07:05:07;14.40;;;10.60;;
77733;SDS011;66902;41.720;44.796;2023-12-20T07:07:40;16.30;;;8.70;;
77733;SDS011;66902;41.720;44.796;2023-12-20T07:10:14;10.20;;;8.40;;
77733;SDS011;66902;41.720;44.796;2023-12-20T07:12:49;12.70;;;8.70;;
77733;SDS011;66902;41.720;44.796;2023-12-20T07:15:25;11.80;;;8.90;;
77733;SDS011;66902;41.720;44.796;2023-12-20T07:17:59;10.40;;;9.20;;
77733;SDS011;66902;41.720;44.796;2023-12-20T07:20:33;18.50;;;11.20;;
77733;SDS011;66902;41.720;44.796;2023-12-20T07:23:06;16.60;;;9.20;;
77733;SDS011;66902;41.720;44.796;2023-12-20T07:25:40;14.20;;;11.10;;
77733;SDS011;66902;41.720;44.796;2023-12-20T07:28:13;18.10;;;9.70;;
77733;SDS011;66902;41.720;44.796;2023-12-20T07:33:19;15.80;;;9.20;;
77733;SDS011;66902;41.720;44.796;2023-12-20T07:35:53;12.40;;;9.20;;
77733;SDS011;66902;41.720;44.796;2023-12-20T07:38:26;11.20;;;9.90;;
77733;SDS011;66902;41.720;44.796;2023-12-20T07:41:03;13.80;;;10.10;;
77733;SDS011;66902;41.720;44.796;2023-12-20T07:43:36;15.70;;;11.60;;
77733;SDS011;66902;41.720;44.796;2023-12-20T07:46:10;14.30;;;11.50;;
77733;SDS011;66902;41.720;44.796;2023-12-20T07:48:44;15.10;;;12.50;;
77733;SDS011;66902;41.720;44.796;2023-12-20T07:51:18;15.80;;;12.00;;
77733;SDS011;66902;41.720;44.796;2023-12-20T07:53:51;19.10;;;11.90;;
77733;SDS011;66902;41.720;44.796;2023-12-20T07:56:25;13.80;;;11.30;;
77733;SDS011;66902;41.720;44.796;2023-12-20T07:58:58;21.50;;;11.20;;
77733;SDS011;66902;41.720;44.796;2023-12-20T08:01:32;14.20;;;12.50;;
77733;SDS011;66902;41.720;44.796;2023-12-20T08:04:06;19.70;;;13.60;;
77733;SDS011;66902;41.720;44.796;2023-12-20T08:06:39;23.90;;;15.60;;
77733;SDS011;66902;41.720;44.796;2023-12-20T08:09:24;20.60;;;14.00;;
77733;SDS011;66902;41.720;44.796;2023-12-20T08:11:58;19.50;;;16.60;;
77733;SDS011;66902;41.720;44.796;2023-12-20T08:14:32;22.60;;;11.80;;
77733;SDS011;66902;41.720;44.796;2023-12-20T08:17:05;20.10;;;13.20;;
77733;SDS011;66902;41.720;44.796;2023-12-20T08:19:39;26.20;;;15.20;;
77733;SDS011;66902;41.720;44.796;2023-12-20T08:22:12;23.00;;;14.10;;
77733;SDS011;66902;41.720;44.796;2023-12-20T08:24:48;27.50;;;16.50;;
77733;SDS011;66902;41.720;44.796;2023-12-20T08:27:22;27.40;;;16.90;;
77733;SDS011;66902;41.720;44.796;2023-12-20T08:29:55;18.10;;;12.00;;
77733;SDS011;66902;41.720;44.796;2023-12-20T08:32:29;19.40;;;13.30;;
77733;SDS011;66902;41.720;44.796;2023-12-20T08:35:03;16.50;;;14.30;;
77733;SDS011;66902;41.720;44.796;2023-12-20T08:37:38;21.30;;;12.60;;
77733;SDS011;66902;41.720;44.796;2023-12-20T08:40:12;17.70;;;12.40;;
77733;SDS011;66902;41.720;44.796;2023-12-20T08:42:46;30.00;;;12.50;;
77733;SDS011;66902;41.720;44.796;2023-12-20T08:45:20;17.10;;;11.90;;
77733;SDS011;66902;41.720;44.796;2023-12-20T08:47:54;16.30;;;14.20;;
77733;SDS011;66902;41.720;44.796;2023-12-20T08:50:31;24.90;;;13.10;;
77733;SDS011;66902;41.720;44.796;2023-12-20T08:53:05;25.60;;;13.40;;
77733;SDS011;66902;41.720;44.796;2023-12-20T08:55:38;20.40;;;13.00;;
77733;SDS011;66902;41.720;44.796;2023-12-20T08:58:12;21.20;;;12.20;;
77733;SDS011;66902;41.720;44.796;2023-12-20T09:00:45;14.90;;;13.20;;
77733;SDS011;66902;41.720;44.796;2023-12-20T09:03:19;21.70;;;14.30;;
77733;SDS011;66902;41.720;44.796;2023-12-20T09:05:52;29.10;;;13.90;;
77733;SDS011;66902;41.720;44.796;2023-12-20T09:08:26;19.30;;;13.10;;
77733;SDS011;66902;41.720;44.796;2023-12-20T09:11:00;24.70;;;15.90;;
77733;SDS011;66902;41.720;44.796;2023-12-20T09:13:34;18.90;;;13.90;;
77733;SDS011;66902;41.720;44.796;2023-12-20T09:16:08;26.70;;;16.80;;
77733;SDS011;66902;41.720;44.796;2023-12-20T09:18:43;28.90;;;15.30;;
77733;SDS011;66902;41.720;44.796;2023-12-20T09:21:17;18.90;;;13.90;;
77733;SDS011;66902;41.720;44.796;2023-12-20T09:23:50;17.40;;;13.00;;
77733;SDS011;66902;41.720;44.796;2023-12-20T09:26:25;22.50;;;15.40;;
77733;SDS011;66902;41.720;44.796;2023-12-20T09:29:01;23.20;;;14.50;;
77733;SDS011;66902;41.720;44.796;2023-12-20T09:31:35;23.00;;;15.00;;
77733;SDS011;66902;41.720;44.796;2023-12-20T09:34:10;16.90;;;12.70;;
77733;SDS011;66902;41.720;44.796;2023-12-20T09:36:43;20.90;;;12.80;;
77733;SDS011;66902;41.720;44.796;2023-12-20T09:39:18;30.10;;;17.20;;
77733;SDS011;66902;41.720;44.796;2023-12-20T09:41:56;20.20;;;14.00;;
77733;SDS011;66902;41.720;44.796;2023-12-20T09:44:34;25.50;;;14.60;;
77733;SDS011;66902;41.720;44.796;2023-12-20T09:47:11;21.30;;;14.60;;
77733;SDS011;66902;41.720;44.796;2023-12-20T09:49:45;22.50;;;14.40;;
77733;SDS011;66902;41.720;44.796;2023-12-20T09:52:20;24.00;;;17.80;;
77733;SDS011;66902;41.720;44.796;2023-12-20T09:54:56;19.10;;;14.40;;
77733;SDS011;66902;41.720;44.796;2023-12-20T09:57:31;22.70;;;13.50;;
77733;SDS011;66902;41.720;44.796;2023-12-20T10:00:06;16.50;;;14.60;;
77733;SDS011;66902;41.720;44.796;2023-12-20T10:02:42;37.10;;;17.20;;
77733;SDS011;66902;41.720;44.796;2023-12-20T10:05:20;24.90;;;16.80;;
77733;SDS011;66902;41.720;44.796;2023-12-20T10:08:00;22.10;;;15.40;;
77733;SDS011;66902;41.720;44.796;2023-12-20T10:10:34;18.60;;;15.00;;
77733;SDS011;66902;41.720;44.796;2023-12-20T10:13:17;22.50;;;16.00;;
77733;SDS011;66902;41.720;44.796;2023-12-20T10:15:51;18.30;;;12.60;;
77733;SDS011;66902;41.720;44.796;2023-12-20T10:18:26;18.20;;;13.60;;
77733;SDS011;66902;41.720;44.796;2023-12-20T10:21:09;19.00;;;14.20;;
77733;SDS011;66902;41.720;44.796;2023-12-20T10:23:42;20.30;;;13.60;;
77733;SDS011;66902;41.720;44.796;2023-12-20T10:26:20;21.30;;;13.30;;
77733;SDS011;66902;41.720;44.796;2023-12-20T10:28:55;18.10;;;13.50;;
77733;SDS011;66902;41.720;44.796;2023-12-20T10:31:33;12.30;;;10.90;;
77733;SDS011;66902;41.720;44.796;2023-12-20T10:34:08;15.50;;;10.70;;
77733;SDS011;66902;41.720;44.796;2023-12-20T10:36:42;14.90;;;12.60;;
77733;SDS011;66902;41.720;44.796;2023-12-20T10:39:16;14.60;;;11.50;;
77733;SDS011;66902;41.720;44.796;2023-12-20T10:41:51;19.80;;;13.60;;
77733;SDS011;66902;41.720;44.796;2023-12-20T10:44:25;19.30;;;11.10;;
77733;SDS011;66902;41.720;44.796;2023-12-20T10:46:58;15.10;;;11.30;;
77733;SDS011;66902;41.720;44.796;2023-12-20T10:49:32;12.50;;;10.80;;
77733;SDS011;66902;41.720;44.796;2023-12-20T10:52:09;21.40;;;12.00;;
77733;SDS011;66902;41.720;44.796;2023-12-20T10:54:44;13.30;;;10.70;;
77733;SDS011;66902;41.720;44.796;2023-12-20T10:57:18;14.10;;;9.90;;
77733;SDS011;66902;41.720;44.796;2023-12-20T10:59:52;13.90;;;10.60;;
77733;SDS011;66902;41.720;44.796;2023-12-20T11:02:26;20.40;;;11.80;;
77733;SDS011;66902;41.720;44.796;2023-12-20T11:05:04;9.40;;;8.20;;
77733;SDS011;66902;41.720;44.796;2023-12-20T11:07:43;10.20;;;7.40;;
77733;SDS011;66902;41.720;44.796;2023-12-20T11:10:20;15.90;;;9.10;;
77733;SDS011;66902;41.720;44.796;2023-12-20T11:12:58;14.30;;;10.20;;
77733;SDS011;66902;41.720;44.796;2023-12-20T11:15:42;13.80;;;11.20;;
77733;SDS011;66902;41.720;44.796;2023-12-20T11:18:16;11.80;;;8.60;;
77733;SDS011;66902;41.720;44.796;2023-12-20T11:20:50;14.00;;;9.30;;
77733;SDS011;66902;41.720;44.796;2023-12-20T11:23:24;17.30;;;10.50;;
77733;SDS011;66902;41.720;44.796;2023-12-20T11:25:57;13.80;;;9.90;;
77733;SDS011;66902;41.720;44.796;2023-12-20T11:28:31;13.20;;;9.80;;
77733;SDS011;66902;41.720;44.796;2023-12-20T11:31:05;9.90;;;7.60;;
77733;SDS011;66902;41.720;44.796;2023-12-20T11:33:41;14.80;;;10.20;;
77733;SDS011;66902;41.720;44.796;2023-12-20T11:36:19;11.40;;;9.30;;
77733;SDS011;66902;41.720;44.796;2023-12-20T11:38:57;19.90;;;9.80;;
77733;SDS011;66902;41.720;44.796;2023-12-20T11:41:33;19.40;;;9.60;;
77733;SDS011;66902;41.720;44.796;2023-12-20T11:44:07;16.70;;;8.30;;
77733;SDS011;66902;41.720;44.796;2023-12-20T11:46:42;17.00;;;10.20;;
77733;SDS011;66902;41.720;44.796;2023-12-20T11:49:15;16.70;;;8.30;;
77733;SDS011;66902;41.720;44.796;2023-12-20T11:51:49;13.00;;;9.10;;
77733;SDS011;66902;41.720;44.796;2023-12-20T11:54:23;10.80;;;8.10;;
77733;SDS011;66902;41.720;44.796;2023-12-20T11:56:57;10.00;;;7.80;;
77733;SDS011;66902;41.720;44.796;2023-12-20T11:59:32;13.20;;;8.20;;
77733;SDS011;66902;41.720;44.796;2023-12-20T12:02:05;10.80;;;8.00;;
77733;SDS011;66902;41.720;44.796;2023-12-20T12:04:39;15.60;;;8.60;;
77733;SDS011;66902;41.720;44.796;2023-12-20T12:07:14;16.80;;;8.20;;
77733;SDS011;66902;41.720;44.796;2023-12-20T12:09:48;10.30;;;8.30;;
77733;SDS011;66902;41.720;44.796;2023-12-20T12:12:22;17.10;;;8.60;;
77733;SDS011;66902;41.720;44.796;2023-12-20T12:14:57;17.30;;;10.70;;
77733;SDS011;66902;41.720;44.796;2023-12-20T12:17:30;13.60;;;10.10;;
77733;SDS011;66902;41.720;44.796;2023-12-20T12:20:06;12.70;;;8.80;;
77733;SDS011;66902;41.720;44.796;2023-12-20T12:22:43;11.50;;;10.00;;
77733;SDS011;66902;41.720;44.796;2023-12-20T12:25:20;17.50;;;10.80;;
77733;SDS011;66902;41.720;44.796;2023-12-20T12:27:58;16.30;;;9.70;;
77733;SDS011;66902;41.720;44.796;2023-12-20T12:30:35;15.10;;;9.30;;
77733;SDS011;66902;41.720;44.796;2023-12-20T12:33:22;20.60;;;10.00;;
77733;SDS011;66902;41.720;44.796;2023-12-20T12:35:56;20.90;;;11.20;;
77733;SDS011;66902;41.720;44.796;2023-12-20T12:38:29;15.00;;;9.60;;
77733;SDS011;66902;41.720;44.796;2023-12-20T12:41:03;15.60;;;9.60;;
77733;SDS011;66902;41.720;44.796;2023-12-20T12:43:38;14.30;;;10.30;;
77733;SDS011;66902;41.720;44.796;2023-12-20T12:46:11;13.50;;;9.20;;
77733;SDS011;66902;41.720;44.796;2023-12-20T12:48:45;14.60;;;10.60;;
77733;SDS011;66902;41.720;44.796;2023-12-20T12:51:20;16.10;;;10.60;;
77733;SDS011;66902;41.720;44.796;2023-12-20T12:53:54;14.80;;;10.50;;
77733;SDS011;66902;41.720;44.796;2023-12-20T12:56:27;20.40;;;10.30;;
77733;SDS011;66902;41.720;44.796;2023-12-20T12:59:01;20.20;;;11.80;;
77733;SDS011;66902;41.720;44.796;2023-12-20T13:01:35;13.70;;;10.30;;
77733;SDS011;66902;41.720;44.796;2023-12-20T13:04:10;18.00;;;11.90;;
77733;SDS011;66902;41.720;44.796;2023-12-20T13:06:44;17.50;;;12.10;;
77733;SDS011;66902;41.720;44.796;2023-12-20T13:09:18;18.10;;;12.90;;
77733;SDS011;66902;41.720;44.796;2023-12-20T13:11:51;20.40;;;13.30;;
77733;SDS011;66902;41.720;44.796;2023-12-20T13:14:25;18.30;;;13.20;;
77733;SDS011;66902;41.720;44.796;2023-12-20T13:16:59;21.90;;;15.60;;
77733;SDS011;66902;41.720;44.796;2023-12-20T13:19:33;29.50;;;16.30;;
77733;SDS011;66902;41.720;44.796;2023-12-20T13:22:07;35.40;;;17.50;;
77733;SDS011;66902;41.720;44.796;2023-12-20T13:24:41;20.10;;;16.40;;
77733;SDS011;66902;41.720;44.796;2023-12-20T13:27:14;37.10;;;18.30;;
77733;SDS011;66902;41.720;44.796;2023-12-20T13:29:48;29.60;;;18.00;;
77733;SDS011;66902;41.720;44.796;2023-12-20T13:32:22;32.70;;;17.10;;
77733;SDS011;66902;41.720;44.796;2023-12-20T13:34:56;23.00;;;16.40;;
77733;SDS011;66902;41.720;44.796;2023-12-20T13:37:30;27.50;;;19.20;;
77733;SDS011;66902;41.720;44.796;2023-12-20T13:40:03;30.10;;;19.50;;
77733;SDS011;66902;41.720;44.796;2023-12-20T13:42:39;27.80;;;22.00;;
77733;SDS011;66902;41.720;44.796;2023-12-20T13:45:12;31.90;;;22.20;;
77733;SDS011;66902;41.720;44.796;2023-12-20T13:47:46;35.70;;;22.00;;
77733;SDS011;66902;41.720;44.796;2023-12-20T13:50:20;33.20;;;21.40;;
77733;SDS011;66902;41.720;44.796;2023-12-20T13:52:54;38.40;;;23.50;;
77733;SDS011;66902;41.720;44.796;2023-12-20T13:55:27;30.40;;;22.00;;
77733;SDS011;66902;41.720;44.796;2023-12-20T13:58:01;35.00;;;22.10;;
77733;SDS011;66902;41.720;44.796;2023-12-20T14:00:36;29.60;;;22.90;;
77733;SDS011;66902;41.720;44.796;2023-12-20T14:03:09;42.10;;;25.20;;
77733;SDS011;66902;41.720;44.796;2023-12-20T14:05:43;32.50;;;23.50;;
77733;SDS011;66902;41.720;44.796;2023-12-20T14:08:17;37.00;;;22.70;;
77733;SDS011;66902;41.720;44.796;2023-12-20T14:10:50;32.20;;;24.50;;
77733;SDS011;66902;41.720;44.796;2023-12-20T14:13:24;41.70;;;28.00;;
77733;SDS011;66902;41.720;44.796;2023-12-20T14:15:57;46.40;;;28.60;;
77733;SDS011;66902;41.720;44.796;2023-12-20T14:18:33;35.40;;;24.70;;
77733;SDS011;66902;41.720;44.796;2023-12-20T14:21:15;32.90;;;23.20;;
77733;SDS011;66902;41.720;44.796;2023-12-20T14:23:56;36.90;;;23.80;;
77733;SDS011;66902;41.720;44.796;2023-12-20T14:26:30;41.10;;;23.80;;
77733;SDS011;66902;41.720;44.796;2023-12-20T14:29:03;44.80;;;27.10;;
77733;SDS011;66902;41.720;44.796;2023-12-20T14:31:37;35.70;;;25.20;;
77733;SDS011;66902;41.720;44.796;2023-12-20T14:34:11;41.20;;;25.90;;
77733;SDS011;66902;41.720;44.796;2023-12-20T14:36:46;41.90;;;25.60;;
77733;SDS011;66902;41.720;44.796;2023-12-20T14:39:19;44.30;;;28.00;;
77733;SDS011;66902;41.720;44.796;2023-12-20T14:41:53;44.00;;;30.30;;
77733;SDS011;66902;41.720;44.796;2023-12-20T14:44:27;44.30;;;29.10;;
77733;SDS011;66902;41.720;44.796;2023-12-20T14:47:04;41.50;;;29.70;;
77733;SDS011;66902;41.720;44.796;2023-12-20T14:49:39;38.90;;;27.40;;
77733;SDS011;66902;41.720;44.796;2023-12-20T14:52:13;39.80;;;28.10;;
77733;SDS011;66902;41.720;44.796;2023-12-20T14:54:46;45.40;;;26.30;;